Time;durP1;ratioP1;P1;durP2;ratioP2;P2;SDS_P1;SDS_P2;PMS_P1;PMS_P2;Temp;Humidity;BMP_temperature;BMP_pressure;BME280_temperature;BME280_humidity;BME280_pressure;Samples;Min_cycle;Max_cycle;Signal;HPM_P1;HPM_P2
2023/06/06 00:00:57;;;;;;;7.72;4.15;;;26.90;99.90;;;;;;1843140;76;21236;-82
2023/06/06 00:06:57;;;;;;;7.28;5.37;;;26.90;99.90;;;;;;1842709;76;21192;-83
2023/06/06 00:09:34;;;;;;;7.30;4.95;;;26.90;99.90;;;;;;1833939;76;21162;-82
2023/06/06 00:12:12;;;;;;;8.85;5.25;;;26.90;99.90;;;;;;1860300;74;21194;-82
2023/06/06 00:14:39;;;;;;;9.15;5.30;;;26.90;99.90;;;;;;1855056;75;21685;-83
2023/06/06 00:17:11;;;;;;;11.68;6.25;;;26.90;99.90;;;;;;1871506;74;21227;-82
2023/06/06 00:19:42;;;;;;;10.05;6.55;;;26.90;99.90;;;;;;1866987;75;21213;-83
2023/06/06 00:22:32;;;;;;;;;;;;;;;;;;;;;
2023/06/06 00:25:13;;;;;;;8.23;4.00;;;27.00;99.90;;;;;;1869295;75;21226;-83
2023/06/06 00:27:42;;;;;;;9.23;4.03;;;27.00;99.90;;;;;;1849281;76;21288;-82
2023/06/06 00:30:16;;;;;;;6.97;4.42;;;27.10;99.90;;;;;;1845499;75;21204;-81
2023/06/06 00:32:49;;;;;;;;;;;27.10;99.90;;;;;;1848176;76;21084;-82
2023/06/06 00:35:41;;;;;;;5.28;3.47;;;27.20;99.90;;;;;;1845253;76;20149;-82
2023/06/06 00:38:32;;;;;;;7.70;3.87;;;27.20;99.90;;;;;;1847865;75;21210;-83
2023/06/06 00:41:03;;;;;;;11.90;5.60;;;27.30;99.90;;;;;;1874154;75;21139;-85
2023/06/06 00:43:34;;;;;;;8.05;5.78;;;27.40;99.90;;;;;;1864480;74;21221;-75
2023/06/06 00:46:36;;;;;;;8.25;4.65;;;27.40;99.90;;;;;;1822132;76;21102;-76
2023/06/06 00:49:09;;;;;;;7.92;4.87;;;27.50;99.90;;;;;;1843634;76;21143;-74
2023/06/06 00:52:01;;;;;;;10.93;5.37;;;27.50;99.90;;;;;;1837455;76;21547;-74
2023/06/06 00:55:05;;;;;;;;;;;;;;;;;;;;;
2023/06/06 00:57:43;;;;;;;6.58;3.70;;;27.70;99.90;;;;;;1819270;76;21144;-74
2023/06/06 01:00:34;;;;;;;8.88;3.87;;;27.70;99.90;;;;;;1840830;75;21216;-74
2023/06/06 01:03:14;;;;;;;22.30;5.40;;;27.80;99.90;;;;;;1828003;75;22073;-76
2023/06/06 01:05:41;;;;;;;5.35;2.98;;;27.80;99.90;;;;;;1818796;76;21786;-72
2023/06/06 01:08:15;;;;;;;17.73;4.50;;;27.80;99.90;;;;;;1813335;76;21199;-74
2023/06/06 01:11:11;;;;;;;72.32;8.50;;;27.80;99.90;;;;;;1822021;75;21185;-73
2023/06/06 01:14:05;;;;;;;19.20;5.30;;;27.80;99.90;;;;;;1809804;76;21226;-75
2023/06/06 01:16:37;;;;;;;13.13;3.60;;;27.80;99.90;;;;;;1800794;77;21273;-74
2023/06/06 01:19:13;;;;;;;4.70;3.05;;;27.80;99.90;;;;;;1835606;76;21162;-75
2023/06/06 01:21:59;;;;;;;5.95;2.92;;;27.80;99.90;;;;;;1826724;76;21326;-75
2023/06/06 01:24:30;;;;;;;5.33;3.65;;;27.90;99.90;;;;;;1819571;76;21701;-77
2023/06/06 01:27:03;;;;;;;6.95;3.60;;;28.00;99.90;;;;;;1830611;75;21154;-77
2023/06/06 01:30:05;;;;;;;6.67;3.40;;;28.00;99.90;;;;;;1821689;75;21229;-75
2023/06/06 01:33:23;;;;;;;7.25;3.60;;;28.10;99.90;;;;;;1834243;76;21287;-75
2023/06/06 01:36:23;;;;;;;6.22;3.47;;;28.20;99.90;;;;;;1859503;74;22658;-74
2023/06/06 01:39:00;;;;;;;5.83;3.42;;;28.20;99.90;;;;;;1840700;75;21222;-74
2023/06/06 01:41:33;;;;;;;8.73;5.35;;;28.20;99.90;;;;;;1842319;75;22101;-76
2023/06/06 01:44:07;;;;;;;7.30;4.67;;;28.30;99.90;;;;;;1863837;75;21107;-76
2023/06/06 01:47:04;;;;;;;7.53;3.95;;;28.30;99.90;;;;;;1871882;74;21194;-72
2023/06/06 01:49:36;;;;;;;6.30;3.67;;;28.30;99.90;;;;;;1885282;74;21627;-74
2023/06/06 01:52:08;;;;;;;7.80;4.10;;;28.40;99.90;;;;;;1890555;73;21193;-72
2023/06/06 01:55:01;;;;;;;6.17;3.52;;;28.50;99.90;;;;;;1881448;73;21158;-71
2023/06/06 01:57:49;;;;;;;5.00;3.90;;;28.50;99.90;;;;;;1893434;73;21815;-71
2023/06/06 02:00:25;;;;;;;7.83;3.77;;;28.70;99.90;;;;;;1880776;74;22015;-71
2023/06/06 02:03:03;;;;;;;7.30;4.53;;;28.70;99.90;;;;;;1889094;73;21315;-70
2023/06/06 02:06:11;;;;;;;9.70;4.10;;;28.80;99.90;;;;;;1887811;73;21238;-70
2023/06/06 02:08:43;;;;;;;5.45;4.40;;;29.00;99.90;;;;;;1885817;75;21274;-72
2023/06/06 02:11:34;;;;;;;9.18;4.30;;;29.00;99.90;;;;;;1880928;74;21277;-74
2023/06/06 02:14:23;;;;;;;7.15;3.98;;;29.10;99.90;;;;;;1813375;75;21234;-74
2023/06/06 02:17:16;;;;;;;10.90;3.47;;;29.20;99.90;;;;;;1843438;76;21198;-72
2023/06/06 02:19:50;;;;;;;8.95;4.15;;;29.30;99.90;;;;;;1841898;74;21417;-74
2023/06/06 02:22:21;;;;;;;7.80;3.98;;;29.40;99.90;;;;;;1836768;74;21920;-74
2023/06/06 02:24:55;;;;;;;10.03;4.42;;;29.50;99.90;;;;;;1832803;76;21139;-72
2023/06/06 02:28:03;;;;;;;8.53;4.65;;;29.50;99.90;;;;;;1840621;76;21200;-74
2023/06/06 02:31:08;;;;;;;6.50;3.80;;;29.60;99.90;;;;;;1806932;77;21600;-70
2023/06/06 02:33:43;;;;;;;6.72;4.12;;;29.70;99.90;;;;;;1858016;75;21217;-70
2023/06/06 02:36:17;;;;;;;5.10;3.72;;;29.80;99.90;;;;;;1838363;75;21212;-73
2023/06/06 02:38:47;;;;;;;5.42;3.08;;;29.90;99.90;;;;;;1805922;77;21221;-70
2023/06/06 02:41:45;;;;;;;5.58;4.05;;;29.90;99.90;;;;;;1833745;75;21297;-72
2023/06/06 02:44:38;;;;;;;4.85;3.65;;;29.90;99.90;;;;;;1801095;75;21942;-72
2023/06/06 02:47:09;;;;;;;8.23;3.92;;;29.90;99.90;;;;;;1843783;74;21477;-73
2023/06/06 02:49:40;;;;;;;6.37;3.55;;;29.90;99.90;;;;;;1832044;76;21828;-70
2023/06/06 02:52:31;;;;;;;7.60;3.70;;;29.80;99.90;;;;;;1850371;76;22128;-71
2023/06/06 02:55:03;;;;;;;5.33;3.37;;;29.80;99.90;;;;;;1849461;75;22048;-72
2023/06/06 02:57:35;;;;;;;6.92;4.03;;;29.70;99.90;;;;;;1858311;74;22641;-71
2023/06/06 03:00:08;;;;;;;6.55;4.22;;;29.70;99.90;;;;;;1830586;76;21632;-75
2023/06/06 03:03:12;;;;;;;7.35;3.87;;;29.60;99.90;;;;;;1849968;74;21155;-72
2023/06/06 03:06:10;;;;;;;5.20;3.87;;;29.60;99.90;;;;;;1813413;74;21236;-71
2023/06/06 03:09:00;;;;;;;;;;;;;;;;;;;;;
2023/06/06 03:11:37;;;;;;;11.00;4.60;;;29.60;99.90;;;;;;1825898;75;21334;-73
2023/06/06 03:14:28;;;;;;;5.22;4.00;;;29.70;99.90;;;;;;1842260;75;21839;-71
2023/06/06 03:17:06;;;;;;;6.50;3.52;;;29.70;99.90;;;;;;1857270;75;21130;-72
2023/06/06 03:19:54;;;;;;;5.53;4.30;;;29.80;99.90;;;;;;1837043;75;21151;-74
2023/06/06 03:22:25;;;;;;;9.63;4.58;;;29.90;99.90;;;;;;1866908;75;21258;-71
2023/06/06 03:24:57;;;;;;;7.03;4.10;;;30.00;99.90;;;;;;1813522;76;21140;-72
2023/06/06 03:28:06;;;;;;;8.30;4.42;;;30.20;99.90;;;;;;1830271;76;21189;-70
2023/06/06 03:31:06;;;;;;;8.53;4.55;;;30.40;99.90;;;;;;1853386;76;21220;-73
2023/06/06 03:33:37;;;;;;;8.73;4.62;;;30.50;99.90;;;;;;1817659;77;21275;-72
2023/06/06 03:36:16;;;;;;;6.65;4.30;;;30.60;99.90;;;;;;1850960;75;21717;-75
2023/06/06 03:38:48;;;;;;;10.45;7.45;;;30.60;99.90;;;;;;1856094;75;21479;-73
2023/06/06 03:41:20;;;;;;;7.65;4.53;;;30.70;99.90;;;;;;1864255;74;21223;-73
2023/06/06 03:43:51;;;;;;;11.28;6.50;;;30.70;99.90;;;;;;1855314;75;21519;-72
2023/06/06 03:46:22;;;;;;;13.20;5.22;;;30.70;99.90;;;;;;1866263;75;21736;-72
2023/06/06 03:49:16;;;;;;;12.80;6.42;;;30.70;99.90;;;;;;1850443;75;21197;-73
2023/06/06 03:52:07;;;;;;;13.03;5.80;;;30.80;99.90;;;;;;1844914;75;21185;-72
2023/06/06 03:54:41;;;;;;;9.28;4.70;;;30.80;99.90;;;;;;1853864;75;21224;-72
2023/06/06 03:57:32;;;;;;;10.90;5.37;;;30.90;99.90;;;;;;1863333;75;21083;-72
2023/06/06 04:00:21;;;;;;;8.60;5.72;;;30.90;99.90;;;;;;1877323;74;21720;-73
2023/06/06 04:02:54;;;;;;;10.43;5.30;;;31.10;99.90;;;;;;1877391;74;21168;-71
2023/06/06 04:05:25;;;;;;;13.60;4.83;;;31.20;99.90;;;;;;1854794;74;21129;-71
2023/06/06 04:08:14;;;;;;;6.50;4.05;;;31.30;99.90;;;;;;1888622;74;21898;-71
2023/06/06 04:10:46;;;;;;;6.50;4.03;;;31.40;99.90;;;;;;1861099;76;21168;-72
2023/06/06 04:13:17;;;;;;;7.33;4.65;;;31.50;99.90;;;;;;1893772;73;21177;-70
2023/06/06 04:16:00;;;;;;;15.13;5.42;;;31.60;99.90;;;;;;1861125;75;21768;-70
2023/06/06 04:18:32;;;;;;;11.85;5.78;;;31.60;99.90;;;;;;1891856;73;21193;-72
2023/06/06 04:21:03;;;;;;;9.40;3.98;;;31.50;99.90;;;;;;1892464;73;21240;-72
2023/06/06 04:23:35;;;;;;;9.30;4.90;;;31.40;99.90;;;;;;1895696;73;21225;-71
2023/06/06 04:26:10;;;;;;;13.22;5.62;;;31.30;99.90;;;;;;1915509;73;21210;-71
2023/06/06 04:28:40;;;;;;;9.75;5.58;;;31.20;99.90;;;;;;1900497;73;21233;-72
2023/06/06 04:31:11;;;;;;;9.20;5.28;;;31.00;99.90;;;;;;1848630;76;21221;-71
2023/06/06 04:33:52;;;;;;;9.00;5.15;;;30.90;99.90;;;;;;1850880;75;21095;-72
2023/06/06 04:36:25;;;;;;;18.87;6.17;;;30.80;99.90;;;;;;1882841;72;21124;-70
2023/06/06 04:39:16;;;;;;;8.73;4.10;;;30.70;99.90;;;;;;1866549;74;21275;-71
2023/06/06 04:42:07;;;;;;;11.05;4.42;;;30.60;99.90;;;;;;1860479;74;21229;-71
2023/06/06 04:44:42;;;;;;;14.18;5.62;;;30.60;99.90;;;;;;1902808;73;21744;-70
2023/06/06 04:47:18;;;;;;;14.15;5.15;;;30.60;99.90;;;;;;1877937;74;21864;-71
2023/06/06 04:49:47;;;;;;;7.97;5.15;;;30.60;99.90;;;;;;1881732;73;21474;-69
2023/06/06 04:52:24;;;;;;;18.45;5.10;;;30.60;99.90;;;;;;1882472;74;21549;-71
2023/06/06 04:55:13;;;;;;;10.43;5.95;;;30.60;99.90;;;;;;1875904;74;21704;-68
2023/06/06 04:58:14;;;;;;;9.00;4.72;;;30.60;99.90;;;;;;1874591;74;21156;-70
2023/06/06 05:01:09;;;;;;;15.68;5.45;;;30.60;99.90;;;;;;1897438;73;21623;-69
2023/06/06 05:03:32;;;;;;;9.38;4.78;;;30.60;99.90;;;;;;1879786;74;21185;-69
2023/06/06 05:06:02;;;;;;;7.53;4.80;;;30.60;99.90;;;;;;1865779;73;21631;-69
2023/06/06 05:08:59;;;;;;;8.25;5.10;;;30.60;99.90;;;;;;1865348;74;21518;-69
2023/06/06 05:11:35;;;;;;;8.53;5.33;;;30.60;99.90;;;;;;1844967;75;21370;-69
2023/06/06 05:14:24;;;;;;;6.20;5.22;;;30.60;99.90;;;;;;1802811;75;21300;-68
2023/06/06 05:16:58;;;;;;;7.70;4.72;;;30.60;99.90;;;;;;1884056;74;21767;-69
2023/06/06 05:19:45;;;;;;;8.43;5.58;;;30.60;99.90;;;;;;1873718;74;21381;-69
2023/06/06 05:22:35;;;;;;;11.35;5.55;;;30.60;99.90;;;;;;1857199;74;21247;-68
2023/06/06 05:25:07;;;;;;;5.85;4.72;;;30.60;99.90;;;;;;1854659;73;21844;-69
2023/06/06 05:27:38;;;;;;;8.75;4.78;;;30.60;99.90;;;;;;1878988;74;22072;-68
2023/06/06 05:33:44;;;;;;;7.37;4.65;;;30.70;99.90;;;;;;1792602;78;21282;-70
2023/06/06 05:36:37;;;;;;;6.97;4.97;;;30.70;99.90;;;;;;1775678;78;21618;-70
2023/06/06 05:39:08;;;;;;;9.58;5.30;;;30.70;99.90;;;;;;1795572;77;21806;-74
2023/06/06 05:41:39;;;;;;;12.60;4.92;;;30.90;99.90;;;;;;1785349;77;21303;-72
2023/06/06 05:44:11;;;;;;;10.00;5.50;;;31.10;99.90;;;;;;1789707;78;21188;-72
2023/06/06 05:47:02;;;;;;;15.70;5.08;;;31.20;99.90;;;;;;1799634;77;21725;-72
2023/06/06 05:49:52;;;;;;;7.05;5.22;;;31.30;99.90;;;;;;1805987;77;21294;-72
2023/06/06 05:52:24;;;;;;;9.38;5.10;;;31.40;99.90;;;;;;1775904;79;21303;-71
2023/06/06 05:54:58;;;;;;;8.23;4.53;;;31.50;99.90;;;;;;1802009;77;21256;-72
2023/06/06 05:57:30;;;;;;;10.08;5.53;;;31.50;99.90;;;;;;1774717;78;21357;-73
2023/06/06 06:00:03;;;;;;;9.83;5.40;;;31.40;99.90;;;;;;1772556;79;21235;-73
2023/06/06 06:03:03;;;;;;;6.97;4.97;;;31.40;99.90;;;;;;1759549;78;21183;-75
2023/06/06 06:05:35;;;;;;;8.00;4.87;;;31.50;99.90;;;;;;1813104;76;21558;-77
2023/06/06 06:08:07;;;;;;;11.05;5.30;;;31.60;99.90;;;;;;1838206;74;21262;-76
2023/06/06 06:10:39;;;;;;;11.68;5.17;;;31.60;99.90;;;;;;1873371;74;21187;-75
2023/06/06 06:13:10;;;;;;;8.83;5.10;;;31.50;99.90;;;;;;1876708;74;21298;-75
2023/06/06 06:15:42;;;;;;;7.40;4.58;;;31.50;99.90;;;;;;1886484;73;21740;-76
2023/06/06 06:18:14;;;;;;;7.25;4.95;;;31.50;99.90;;;;;;1891550;74;21138;-76
2023/06/06 06:20:46;;;;;;;8.50;5.08;;;31.50;99.90;;;;;;1895166;73;21163;-78
2023/06/06 06:23:18;;;;;;;8.30;5.15;;;31.40;99.90;;;;;;1868816;74;21183;-75
2023/06/06 06:25:50;;;;;;;8.08;5.12;;;31.40;99.90;;;;;;1881880;73;21141;-79
2023/06/06 06:28:22;;;;;;;8.08;5.03;;;31.50;99.90;;;;;;1877069;74;21874;-80
2023/06/06 06:30:54;;;;;;;11.45;5.40;;;31.40;99.90;;;;;;1869158;74;21211;-78
2023/06/06 06:33:27;;;;;;;7.53;4.80;;;31.10;99.90;;;;;;1858345;74;21216;-81
2023/06/06 06:35:58;;;;;;;5.35;4.60;;;30.90;99.90;;;;;;1864101;74;21366;-77
2023/06/06 06:38:33;;;;;;;6.35;4.70;;;30.70;99.90;;;;;;1876478;74;21642;-77
2023/06/06 06:41:05;;;;;;;6.08;4.12;;;30.50;99.90;;;;;;1890135;72;21358;-79
2023/06/06 06:43:37;;;;;;;8.08;4.47;;;30.40;99.90;;;;;;1870041;74;21174;-77
2023/06/06 06:46:08;;;;;;;10.90;4.55;;;30.30;99.90;;;;;;1846350;75;21186;-78
2023/06/06 06:49:03;;;;;;;7.90;4.62;;;30.20;99.90;;;;;;1887384;73;21166;-91
2023/06/06 06:51:29;;;;;;;8.27;4.60;;;30.10;99.90;;;;;;1884285;74;21224;-88
2023/06/06 06:54:13;;;;;;;8.45;4.33;;;30.10;99.90;;;;;;1881338;73;21160;-86
2023/06/06 06:56:48;;;;;;;6.60;4.12;;;30.00;99.90;;;;;;1880595;74;21241;-88
2023/06/06 06:59:20;;;;;;;8.98;4.53;;;30.00;99.90;;;;;;1895370;73;21274;-88
2023/06/06 07:01:56;;;;;;;8.85;4.25;;;30.00;99.90;;;;;;1882646;73;21170;-87
2023/06/06 07:04:37;;;;;;;5.35;3.70;;;30.00;99.90;;;;;;1882402;74;21631;-86
2023/06/06 07:07:04;;;;;;;6.12;4.10;;;30.00;99.90;;;;;;1887215;73;21242;-89
2023/06/06 07:09:37;;;;;;;8.95;4.83;;;30.00;99.90;;;;;;1904923;73;21180;-88
2023/06/06 07:12:10;;;;;;;10.32;4.92;;;30.00;99.90;;;;;;1863455;75;21136;-86
2023/06/06 07:14:46;;;;;;;8.90;4.60;;;30.00;99.90;;;;;;1875845;75;21925;-88
2023/06/06 07:17:18;;;;;;;8.90;4.45;;;30.00;99.90;;;;;;1852849;75;21240;-88
2023/06/06 07:19:49;;;;;;;9.60;4.83;;;30.00;99.90;;;;;;1847493;75;21145;-88
2023/06/06 07:22:22;;;;;;;7.12;4.70;;;30.00;99.90;;;;;;1890087;74;22471;-86
2023/06/06 07:24:53;;;;;;;9.38;5.53;;;29.90;99.90;;;;;;1831130;75;21188;-86
2023/06/06 07:27:25;;;;;;;6.37;5.03;;;29.90;99.90;;;;;;1879919;75;21278;-88
2023/06/06 07:29:56;;;;;;;8.15;5.90;;;29.90;99.90;;;;;;1857239;76;21221;-85
2023/06/06 07:32:27;;;;;;;10.78;5.17;;;29.90;99.90;;;;;;1850366;74;21247;-87
2023/06/06 07:34:59;;;;;;;7.85;4.95;;;29.90;99.90;;;;;;1888048;73;21192;-87
2023/06/06 07:37:30;;;;;;;13.65;5.80;;;29.90;99.90;;;;;;1889897;74;21167;-85
2023/06/06 07:40:02;;;;;;;7.97;5.22;;;29.90;99.90;;;;;;1856651;75;21166;-87
2023/06/06 07:42:33;;;;;;;12.15;5.72;;;29.90;99.90;;;;;;1864025;75;21193;-86
2023/06/06 07:45:06;;;;;;;10.70;5.58;;;29.90;99.90;;;;;;1893549;73;21173;-88
2023/06/06 07:47:37;;;;;;;8.25;5.42;;;29.90;99.90;;;;;;1894925;73;21327;-86
2023/06/06 07:50:09;;;;;;;9.73;6.00;;;30.00;99.90;;;;;;1896073;73;21165;-87
2023/06/06 07:52:43;;;;;;;11.68;7.08;;;30.00;99.90;;;;;;1832512;74;21232;-89
2023/06/06 07:55:16;;;;;;;16.77;7.30;;;30.00;99.90;;;;;;1869683;75;21173;-88
2023/06/06 07:57:51;;;;;;;14.23;7.03;;;30.00;99.90;;;;;;1866033;75;21198;-87
2023/06/06 08:00:25;;;;;;;13.28;7.33;;;30.10;99.90;;;;;;1825753;76;21137;-89
2023/06/06 08:02:57;;;;;;;11.90;6.80;;;30.10;99.90;;;;;;1852556;76;21209;-88
2023/06/06 08:05:28;;;;;;;11.08;5.95;;;30.10;99.90;;;;;;1903440;73;21217;-90
2023/06/06 08:08:00;;;;;;;10.70;6.12;;;30.20;99.90;;;;;;1882581;73;21209;-89
2023/06/06 08:10:31;;;;;;;10.90;6.08;;;30.20;99.90;;;;;;1889547;74;21210;-88
2023/06/06 08:13:03;;;;;;;7.65;6.10;;;30.30;99.90;;;;;;1866453;74;21245;-89
2023/06/06 08:15:36;;;;;;;10.78;5.72;;;30.30;99.90;;;;;;1840732;74;21187;-90
2023/06/06 08:18:08;;;;;;;9.73;6.42;;;30.30;99.90;;;;;;1885522;74;21177;-89
2023/06/06 08:20:57;;;;;;;8.30;5.70;;;30.30;99.90;;;;;;1888881;73;21178;-90
2023/06/06 08:23:28;;;;;;;8.93;5.72;;;30.30;99.90;;;;;;1880892;74;21653;-90
2023/06/06 08:26:11;;;;;;;11.68;6.17;;;30.30;99.90;;;;;;1877249;74;21262;-91
2023/06/06 08:28:53;;;;;;;11.68;7.10;;;30.30;99.90;;;;;;1879155;73;21206;-88
2023/06/06 08:32:19;;;;;;;10.45;6.25;;;30.30;99.90;;;;;;1838684;74;21706;-91
2023/06/06 08:34:11;;;;;;;10.78;5.95;;;30.20;99.90;;;;;;1818313;75;21123;-87
2023/06/06 08:36:47;;;;;;;8.13;5.90;;;30.10;99.90;;;;;;1877547;74;21278;-89
2023/06/06 08:45:25;;;;;;;11.20;6.72;;;30.00;99.90;;;;;;1806330;77;21127;-87
2023/06/06 08:48:02;;;;;;;9.35;6.60;;;29.90;99.90;;;;;;1850996;74;21169;-88
2023/06/06 08:50:35;;;;;;;8.65;5.00;;;29.90;99.90;;;;;;1841705;75;21193;-88
2023/06/06 08:53:07;;;;;;;7.17;5.33;;;29.90;99.90;;;;;;1843659;76;21145;-88
2023/06/06 08:55:40;;;;;;;9.95;5.33;;;29.90;99.90;;;;;;1895768;74;21049;-89
2023/06/06 08:58:15;;;;;;;7.22;4.80;;;29.80;99.90;;;;;;1881242;74;21585;-77
2023/06/06 09:00:46;;;;;;;8.70;4.95;;;29.80;99.90;;;;;;1869716;74;21150;-78
2023/06/06 09:03:18;;;;;;;6.28;4.70;;;29.80;99.90;;;;;;1890703;73;21156;-76
2023/06/06 09:05:51;;;;;;;8.15;4.90;;;29.80;99.90;;;;;;1885402;74;21708;-77
2023/06/06 09:08:38;;;;;;;6.47;4.95;;;29.80;99.90;;;;;;1885973;74;21256;-76
2023/06/06 09:14:09;;;;;;;5.85;4.55;;;29.80;99.90;;;;;;1710583;81;21280;-75
2023/06/06 09:16:44;;;;;;;6.00;4.33;;;29.80;99.90;;;;;;1752209;78;21376;-75
2023/06/06 09:19:28;;;;;;;8.08;5.08;;;29.80;99.90;;;;;;1879307;74;21171;-75
2023/06/06 09:22:03;;;;;;;9.83;5.05;;;29.80;99.90;;;;;;1822071;75;21736;-76
2023/06/06 09:24:39;;;;;;;8.43;4.80;;;29.90;99.90;;;;;;1857426;74;21211;-73
2023/06/06 09:27:22;;;;;;;8.25;4.60;;;29.90;99.90;;;;;;1895188;74;22028;-75
2023/06/06 09:29:54;;;;;;;8.80;4.67;;;29.90;99.90;;;;;;1863614;74;21237;-75
2023/06/06 09:32:28;;;;;;;7.47;4.85;;;30.00;99.90;;;;;;1912722;74;21228;-74
2023/06/06 09:35:06;;;;;;;11.10;5.37;;;30.00;99.90;;;;;;1894150;73;21382;-78
2023/06/06 09:37:40;;;;;;;6.67;5.10;;;30.00;99.90;;;;;;1879810;75;21873;-75
2023/06/06 09:40:15;;;;;;;8.53;5.70;;;30.00;99.90;;;;;;1911138;74;21341;-75
2023/06/06 09:42:47;;;;;;;;;;;30.10;99.90;;;;;;1904130;74;21959;-76
2023/06/06 09:45:19;;;;;;;9.18;5.62;;;30.10;99.90;;;;;;1893872;74;20197;-73
2023/06/06 09:47:51;;;;;;;9.38;5.35;;;30.10;99.90;;;;;;1898439;74;21219;-75
2023/06/06 09:50:22;;;;;;;13.18;6.35;;;30.10;99.90;;;;;;1859631;75;21288;-76
2023/06/06 09:52:54;;;;;;;14.58;6.45;;;30.20;99.90;;;;;;1896180;74;21134;-74
2023/06/06 09:55:25;;;;;;;9.58;5.60;;;30.20;99.90;;;;;;1866057;74;21639;-75
2023/06/06 09:57:58;;;;;;;15.60;7.15;;;30.20;99.90;;;;;;1884903;74;21159;-80
2023/06/06 10:00:32;;;;;;;13.05;6.67;;;30.30;99.90;;;;;;1898647;74;21256;-77
2023/06/06 10:03:04;;;;;;;10.63;7.20;;;30.30;99.90;;;;;;1824497;76;21897;-79
2023/06/06 10:05:37;;;;;;;8.95;6.20;;;30.30;99.90;;;;;;1889944;73;21137;-78
2023/06/06 10:08:09;;;;;;;10.65;5.78;;;30.30;99.90;;;;;;1827356;75;21187;-77
2023/06/06 10:10:44;;;;;;;10.38;5.78;;;30.30;99.90;;;;;;1891942;74;21229;-79
2023/06/06 10:13:16;;;;;;;10.32;5.65;;;30.30;99.90;;;;;;1874039;73;21244;-79
2023/06/06 10:15:48;;;;;;;9.63;5.62;;;30.30;99.90;;;;;;1848884;75;21150;-78
2023/06/06 10:18:20;;;;;;;7.95;5.62;;;30.40;99.90;;;;;;1895409;73;21098;-80
2023/06/06 10:20:52;;;;;;;11.78;5.60;;;30.30;99.90;;;;;;1893730;73;21153;-78
2023/06/06 10:23:26;;;;;;;14.07;6.17;;;30.40;99.90;;;;;;1847535;75;21694;-79
2023/06/06 10:26:00;;;;;;;9.78;5.80;;;30.40;99.90;;;;;;1872422;73;21311;-76
2023/06/06 10:28:37;;;;;;;8.63;5.60;;;30.40;99.90;;;;;;1877018;74;21140;-78
2023/06/06 10:31:14;;;;;;;11.65;5.25;;;30.40;99.90;;;;;;1866344;73;21744;-76
2023/06/06 10:33:54;;;;;;;11.65;5.90;;;30.40;99.90;;;;;;1878899;73;21468;-76
2023/06/06 10:36:26;;;;;;;14.45;6.28;;;30.40;99.90;;;;;;1879861;73;21408;-76
2023/06/06 10:39:25;;;;;;;11.88;7.10;;;30.40;99.90;;;;;;1855801;76;21612;-76
2023/06/06 10:42:01;;;;;;;13.58;6.53;;;30.40;99.90;;;;;;1867778;74;21217;-76
2023/06/06 10:44:50;;;;;;;9.15;5.80;;;30.40;99.90;;;;;;1855581;74;21110;-76
2023/06/06 10:47:35;;;;;;;9.85;6.05;;;30.40;99.90;;;;;;1899895;74;21241;-75
2023/06/06 10:50:15;;;;;;;9.83;5.80;;;30.40;99.90;;;;;;1904062;73;21163;-76
2023/06/06 10:52:49;;;;;;;7.30;5.72;;;30.40;99.90;;;;;;1853284;75;21143;-74
2023/06/06 10:55:26;;;;;;;8.90;5.60;;;30.50;99.90;;;;;;1851622;75;21187;-74
2023/06/06 10:58:06;;;;;;;9.13;5.78;;;30.50;99.90;;;;;;1857986;75;21552;-76
2023/06/06 11:00:44;;;;;;;10.88;6.08;;;30.50;99.90;;;;;;1882183;74;21233;-75
2023/06/06 11:03:16;;;;;;;9.95;5.42;;;30.50;99.90;;;;;;1878838;74;21311;-74
2023/06/06 11:06:05;;;;;;;9.38;6.20;;;30.50;99.90;;;;;;1862297;74;21189;-76
2023/06/06 11:08:45;;;;;;;9.05;6.28;;;30.40;99.90;;;;;;1867675;75;21272;-77
2023/06/06 11:11:18;;;;;;;10.00;6.00;;;30.50;99.90;;;;;;1846832;74;21157;-76
2023/06/06 11:13:56;;;;;;;7.85;6.00;;;30.40;99.90;;;;;;1869459;73;21244;-75
2023/06/06 11:16:45;;;;;;;9.80;5.90;;;30.50;99.90;;;;;;1880444;73;21177;-76
2023/06/06 11:19:19;;;;;;;11.97;5.97;;;30.50;99.90;;;;;;1876033;73;21210;-76
2023/06/06 11:21:51;;;;;;;8.50;5.83;;;30.40;99.90;;;;;;1900681;74;21200;-75
2023/06/06 11:24:23;;;;;;;11.35;5.60;;;30.40;99.90;;;;;;1915622;73;21209;-75
2023/06/06 11:26:55;;;;;;;9.43;5.42;;;30.40;99.90;;;;;;1879029;74;21977;-76
2023/06/06 11:29:28;;;;;;;8.18;5.78;;;30.30;99.90;;;;;;1911929;73;21207;-77
2023/06/06 11:32:24;;;;;;;14.65;6.85;;;30.30;99.90;;;;;;1859208;74;21963;-77
2023/06/06 11:34:59;;;;;;;9.13;6.10;;;30.30;99.90;;;;;;1823427;76;21274;-77
2023/06/06 11:37:32;;;;;;;11.18;6.22;;;30.20;99.90;;;;;;1874100;74;21126;-78
2023/06/06 11:40:11;;;;;;;10.78;6.08;;;30.20;99.90;;;;;;1894096;74;21170;-78
2023/06/06 11:42:46;;;;;;;10.80;7.17;;;30.10;99.90;;;;;;1886204;73;21198;-75
2023/06/06 11:45:19;;;;;;;8.25;6.67;;;30.10;99.90;;;;;;1865186;75;21477;-75
2023/06/06 11:47:51;;;;;;;11.35;6.83;;;30.10;99.90;;;;;;1893114;74;21412;-74
2023/06/06 11:50:29;;;;;;;9.88;6.53;;;30.00;99.90;;;;;;1889242;74;21290;-76
2023/06/06 11:53:05;;;;;;;11.73;6.50;;;30.00;99.90;;;;;;1879543;75;21620;-75
2023/06/06 11:55:37;;;;;;;12.40;7.20;;;30.00;99.90;;;;;;1877168;74;21434;-77
2023/06/06 11:58:09;;;;;;;12.75;7.12;;;30.00;99.90;;;;;;1875034;73;21906;-76
2023/06/06 12:00:40;;;;;;;9.88;6.92;;;30.00;99.90;;;;;;1885950;73;21158;-77
2023/06/06 12:03:13;;;;;;;13.93;7.97;;;30.00;99.90;;;;;;1888932;74;21151;-76
2023/06/06 12:05:45;;;;;;;10.55;7.28;;;30.00;99.90;;;;;;1896733;73;21158;-78
2023/06/06 12:08:17;;;;;;;13.00;7.80;;;30.00;99.90;;;;;;1886644;75;21766;-76
2023/06/06 12:10:48;;;;;;;15.32;7.72;;;29.90;99.90;;;;;;1895864;73;21418;-75
2023/06/06 12:13:33;;;;;;;17.42;7.97;;;29.90;99.90;;;;;;1876714;74;21127;-77
2023/06/06 12:16:04;;;;;;;18.32;10.40;;;29.90;99.90;;;;;;1870599;74;21290;-77
2023/06/06 12:18:36;;;;;;;13.80;7.87;;;29.90;99.90;;;;;;1864984;75;21153;-75
2023/06/06 12:21:15;;;;;;;13.13;7.62;;;29.90;99.90;;;;;;1865722;74;21208;-78
2023/06/06 12:23:46;;;;;;;12.67;7.73;;;29.90;99.90;;;;;;1896505;74;21636;-77
2023/06/06 12:26:18;;;;;;;13.95;6.58;;;29.90;99.90;;;;;;1859824;76;21631;-79
2023/06/06 12:29:00;;;;;;;10.88;6.90;;;29.80;99.90;;;;;;1867785;76;21625;-77
2023/06/06 12:31:34;;;;;;;12.60;7.20;;;29.80;99.90;;;;;;1891055;74;21840;-77
2023/06/06 12:34:05;;;;;;;13.05;7.28;;;29.80;99.90;;;;;;1869573;74;21248;-76
2023/06/06 12:36:37;;;;;;;9.78;6.87;;;29.80;99.90;;;;;;1868649;75;21535;-76
2023/06/06 12:39:09;;;;;;;11.78;6.83;;;29.80;99.90;;;;;;1875366;74;21903;-77
2023/06/06 12:41:42;;;;;;;10.38;7.03;;;29.80;99.90;;;;;;1881841;74;21135;-76
2023/06/06 12:44:16;;;;;;;11.53;7.22;;;29.80;99.90;;;;;;1900230;74;21238;-76
2023/06/06 12:46:48;;;;;;;11.48;7.40;;;29.70;99.90;;;;;;1890463;74;21105;-76
2023/06/06 12:49:20;;;;;;;16.82;7.58;;;29.70;99.90;;;;;;1907153;74;21147;-77
2023/06/06 12:51:55;;;;;;;19.17;7.47;;;29.70;99.90;;;;;;1869720;74;21151;-76
2023/06/06 12:54:27;;;;;;;14.10;7.40;;;29.70;99.90;;;;;;1864216;75;21930;-75
2023/06/06 12:56:58;;;;;;;11.40;7.22;;;29.70;99.90;;;;;;1894845;74;21177;-74
2023/06/06 12:59:30;;;;;;;11.83;6.58;;;29.60;99.90;;;;;;1893952;74;21218;-76
2023/06/06 13:02:06;;;;;;;11.80;6.30;;;29.60;99.90;;;;;;1897505;73;21617;-76
2023/06/06 13:04:34;;;;;;;9.45;6.00;;;29.60;99.90;;;;;;1916569;73;21226;-77
2023/06/06 13:07:07;;;;;;;12.07;5.78;;;29.60;99.90;;;;;;1896071;73;21899;-78
2023/06/06 13:09:41;;;;;;;12.45;6.20;;;29.60;99.90;;;;;;1845003;75;21885;-76
2023/06/06 13:12:13;;;;;;;7.45;5.67;;;29.60;99.90;;;;;;1874676;75;21996;-77
2023/06/06 13:14:46;;;;;;;11.20;5.80;;;29.50;99.90;;;;;;1849977;74;21138;-78
2023/06/06 13:17:17;;;;;;;10.20;6.47;;;29.60;99.90;;;;;;1882873;74;21182;-80
2023/06/06 13:19:51;;;;;;;9.15;6.45;;;29.60;99.90;;;;;;1874140;73;21110;-78
2023/06/06 13:22:26;;;;;;;11.97;7.03;;;29.60;99.90;;;;;;1879253;73;21311;-80
2023/06/06 13:25:08;;;;;;;24.02;14.60;;;29.60;99.90;;;;;;1845247;76;21139;-77
2023/06/06 13:27:41;;;;;;;16.17;7.40;;;29.60;99.90;;;;;;1873874;74;21868;-76
2023/06/06 13:30:13;;;;;;;12.53;6.53;;;29.50;99.90;;;;;;1873859;75;21970;-76
2023/06/06 13:32:45;;;;;;;17.48;6.15;;;29.60;99.90;;;;;;1869135;74;21220;-78
2023/06/06 13:35:17;;;;;;;21.62;5.80;;;29.50;99.90;;;;;;1866559;75;21232;-76
2023/06/06 13:37:48;;;;;;;14.68;5.20;;;29.40;99.90;;;;;;1896319;73;22016;-76
2023/06/06 13:40:21;;;;;;;20.88;5.92;;;29.30;99.90;;;;;;1900048;74;21185;-77
2023/06/06 13:42:54;;;;;;;32.23;8.83;;;29.20;99.90;;;;;;1894317;73;21128;-75
2023/06/06 13:45:25;;;;;;;21.37;7.90;;;29.10;99.90;;;;;;1907395;73;21140;-77
2023/06/06 13:47:58;;;;;;;12.90;6.50;;;28.90;99.90;;;;;;1899521;73;21597;-79
2023/06/06 13:50:31;;;;;;;15.60;7.22;;;28.70;99.90;;;;;;1913810;74;21403;-78
2023/06/06 13:53:03;;;;;;;21.87;7.20;;;28.20;99.90;;;;;;1830065;75;21165;-78